sensor_id;sensor_type;location;lat;lon;timestamp;pressure;altitude;pressure_sealevel;temperature;humidity
68628;BME280;55611;48.602;9.490;2023-03-14T00:01:56;95410;;;12.4;57.5
68628;BME280;55611;48.602;9.490;2023-03-14T00:04:27;95420;;;12.5;57
68628;BME280;55611;48.602;9.490;2023-03-14T00:06:57;95390;;;12.6;57
68628;BME280;55611;48.602;9.490;2023-03-14T00:09:28;95400;;;12.7;57
68628;BME280;55611;48.602;9.490;2023-03-14T00:11:58;95400;;;12.7;57
68628;BME280;55611;48.602;9.490;2023-03-14T00:14:29;95410;;;12.8;57
68628;BME280;55611;48.602;9.490;2023-03-14T00:16:59;95390;;;12.8;57
68628;BME280;55611;48.602;9.490;2023-03-14T00:19:30;95370;;;12.9;57
68628;BME280;55611;48.602;9.490;2023-03-14T00:22:00;95360;;;12.8;57
68628;BME280;55611;48.602;9.490;2023-03-14T00:24:31;95330;;;12.8;57
68628;BME280;55611;48.602;9.490;2023-03-14T00:27:01;95270;;;12.8;57
68628;BME280;55611;48.602;9.490;2023-03-14T00:29:32;95220;;;12.8;57
68628;BME280;55611;48.602;9.490;2023-03-14T00:32:02;95230;;;12.8;57
68628;BME280;55611;48.602;9.490;2023-03-14T00:34:33;95250;;;12.8;57
68628;BME280;55611;48.602;9.490;2023-03-14T00:37:03;95250;;;12.7;57
68628;BME280;55611;48.602;9.490;2023-03-14T00:39:34;95240;;;12.7;57
68628;BME280;55611;48.602;9.490;2023-03-14T00:42:05;95260;;;12.8;57
68628;BME280;55611;48.602;9.490;2023-03-14T00:44:35;95290;;;12.7;57
68628;BME280;55611;48.602;9.490;2023-03-14T00:47:06;95270;;;12.8;57
68628;BME280;55611;48.602;9.490;2023-03-14T00:49:36;95260;;;12.8;57
68628;BME280;55611;48.602;9.490;2023-03-14T00:52:07;95270;;;12.8;57
68628;BME280;55611;48.602;9.490;2023-03-14T00:54:37;95280;;;12.8;57
68628;BME280;55611;48.602;9.490;2023-03-14T00:57:08;95300;;;12.8;57
68628;BME280;55611;48.602;9.490;2023-03-14T00:59:38;95290;;;12.8;57
68628;BME280;55611;48.602;9.490;2023-03-14T01:02:09;95300;;;12.8;57
68628;BME280;55611;48.602;9.490;2023-03-14T01:04:39;95300;;;12.8;57
68628;BME280;55611;48.602;9.490;2023-03-14T01:07:10;95300;;;12.9;57
68628;BME280;55611;48.602;9.490;2023-03-14T01:09:40;95320;;;12.8;57
68628;BME280;55611;48.602;9.490;2023-03-14T01:12:11;95310;;;12.9;57
68628;BME280;55611;48.602;9.490;2023-03-14T01:14:41;95310;;;12.9;57.5
68628;BME280;55611;48.602;9.490;2023-03-14T01:19:42;95310;;;12.9;57.5
68628;BME280;55611;48.602;9.490;2023-03-14T01:22:13;95310;;;12.9;57.5
68628;BME280;55611;48.602;9.490;2023-03-14T01:24:43;95310;;;12.9;57
68628;BME280;55611;48.602;9.490;2023-03-14T01:27:14;95300;;;12.9;57
68628;BME280;55611;48.602;9.490;2023-03-14T01:29:44;95290;;;12.9;57.5
68628;BME280;55611;48.602;9.490;2023-03-14T01:32:15;95280;;;12.9;57.5
68628;BME280;55611;48.602;9.490;2023-03-14T01:34:45;95290;;;12.9;57.5
68628;BME280;55611;48.602;9.490;2023-03-14T01:37:16;95280;;;12.9;57.5
68628;BME280;55611;48.602;9.490;2023-03-14T01:39:47;95270;;;12.9;57.5
68628;BME280;55611;48.602;9.490;2023-03-14T01:42:17;95280;;;13;57.5
68628;BME280;55611;48.602;9.490;2023-03-14T01:44:50;95270;;;13;57.5
68628;BME280;55611;48.602;9.490;2023-03-14T01:47:18;95260;;;13;57.5
68628;BME280;55611;48.602;9.490;2023-03-14T01:49:51;95250;;;13;57.5
68628;BME280;55611;48.602;9.490;2023-03-14T01:52:20;95250;;;13;57.5
68628;BME280;55611;48.602;9.490;2023-03-14T01:54:50;95260;;;13;57.5
68628;BME280;55611;48.602;9.490;2023-03-14T01:57:21;95260;;;13;57.5
68628;BME280;55611;48.602;9.490;2023-03-14T01:59:59;95250;;;13;57.5
68628;BME280;55611;48.602;9.490;2023-03-14T02:02:21;95240;;;13.1;57.5
68628;BME280;55611;48.602;9.490;2023-03-14T02:04:52;95250;;;13.1;57.5
68628;BME280;55611;48.602;9.490;2023-03-14T02:07:22;95240;;;13.1;57.5
68628;BME280;55611;48.602;9.490;2023-03-14T02:09:53;95230;;;13.1;57.5
68628;BME280;55611;48.602;9.490;2023-03-14T02:12:23;95230;;;13.1;57.5
68628;BME280;55611;48.602;9.490;2023-03-14T02:17:24;95250;;;13.1;57.5
68628;BME280;55611;48.602;9.490;2023-03-14T02:19:57;95240;;;13.1;57.5
68628;BME280;55611;48.602;9.490;2023-03-14T02:22:25;95240;;;13.1;57.5
68628;BME280;55611;48.602;9.490;2023-03-14T02:24:59;95240;;;13.2;57.5
68628;BME280;55611;48.602;9.490;2023-03-14T02:27:26;95210;;;13.1;57.5
68628;BME280;55611;48.602;9.490;2023-03-14T02:32:27;95200;;;13.2;57.5
68628;BME280;55611;48.602;9.490;2023-03-14T02:34:59;95210;;;13.1;57.5
68628;BME280;55611;48.602;9.490;2023-03-14T02:37:46;95190;;;13.1;57.5
68628;BME280;55611;48.602;9.490;2023-03-14T02:39:59;95200;;;13.1;57.5
68628;BME280;55611;48.602;9.490;2023-03-14T02:42:29;95200;;;13.1;57.5
68628;BME280;55611;48.602;9.490;2023-03-14T02:47:30;95200;;;13.2;57.5
68628;BME280;55611;48.602;9.490;2023-03-14T02:50:06;95190;;;13.2;57.5
68628;BME280;55611;48.602;9.490;2023-03-14T02:52:31;95190;;;13.2;57.5
68628;BME280;55611;48.602;9.490;2023-03-14T02:55:02;95190;;;13.2;57.5
68628;BME280;55611;48.602;9.490;2023-03-14T02:57:32;95190;;;13.2;57.5
68628;BME280;55611;48.602;9.490;2023-03-14T03:00:03;95180;;;13.2;57.5
68628;BME280;55611;48.602;9.490;2023-03-14T03:02:33;95180;;;13.2;58
68628;BME280;55611;48.602;9.490;2023-03-14T03:05:04;95190;;;13.3;57.5
68628;BME280;55611;48.602;9.490;2023-03-14T03:07:34;95180;;;13.3;57.5
68628;BME280;55611;48.602;9.490;2023-03-14T03:10:05;95190;;;13.3;57.5
68628;BME280;55611;48.602;9.490;2023-03-14T03:12:35;95190;;;13.2;57.5
68628;BME280;55611;48.602;9.490;2023-03-14T03:15:06;95190;;;13.2;58
68628;BME280;55611;48.602;9.490;2023-03-14T03:17:36;95170;;;13.2;57.5
68628;BME280;55611;48.602;9.490;2023-03-14T03:20:07;95160;;;13.1;57.5
68628;BME280;55611;48.602;9.490;2023-03-14T03:22:38;95140;;;13.1;58
68628;BME280;55611;48.602;9.490;2023-03-14T03:25:08;95150;;;13.1;58
68628;BME280;55611;48.602;9.490;2023-03-14T03:27:38;95150;;;13.2;58
68628;BME280;55611;48.602;9.490;2023-03-14T03:30:09;95150;;;13.2;58
68628;BME280;55611;48.602;9.490;2023-03-14T03:32:39;95130;;;13.2;57.5
68628;BME280;55611;48.602;9.490;2023-03-14T03:35:10;95130;;;13.2;58
68628;BME280;55611;48.602;9.490;2023-03-14T03:37:41;95120;;;13.1;58
68628;BME280;55611;48.602;9.490;2023-03-14T03:40:11;95100;;;13.1;58
68628;BME280;55611;48.602;9.490;2023-03-14T03:42:42;95110;;;13.2;58
68628;BME280;55611;48.602;9.490;2023-03-14T03:45:12;95110;;;13.2;58
68628;BME280;55611;48.602;9.490;2023-03-14T03:47:43;95100;;;13.2;58
68628;BME280;55611;48.602;9.490;2023-03-14T03:50:13;95100;;;13.2;58
68628;BME280;55611;48.602;9.490;2023-03-14T03:52:44;95100;;;13.3;58
68628;BME280;55611;48.602;9.490;2023-03-14T03:55:14;95090;;;13.3;58
68628;BME280;55611;48.602;9.490;2023-03-14T03:57:45;95090;;;13.3;58
68628;BME280;55611;48.602;9.490;2023-03-14T04:00:15;95100;;;13.3;58
68628;BME280;55611;48.602;9.490;2023-03-14T04:02:46;95110;;;13.2;58
68628;BME280;55611;48.602;9.490;2023-03-14T04:05:16;95080;;;13.2;58
68628;BME280;55611;48.602;9.490;2023-03-14T04:07:47;95090;;;13.2;58
68628;BME280;55611;48.602;9.490;2023-03-14T04:10:17;95100;;;13.3;58
68628;BME280;55611;48.602;9.490;2023-03-14T04:12:48;95110;;;13.3;58
68628;BME280;55611;48.602;9.490;2023-03-14T04:15:18;95100;;;13.2;58
68628;BME280;55611;48.602;9.490;2023-03-14T04:17:49;95090;;;13.2;58
68628;BME280;55611;48.602;9.490;2023-03-14T04:20:19;95110;;;13.1;58
68628;BME280;55611;48.602;9.490;2023-03-14T04:22:50;95100;;;13.2;58
68628;BME280;55611;48.602;9.490;2023-03-14T04:25:20;95120;;;13.2;58
68628;BME280;55611;48.602;9.490;2023-03-14T04:30:21;95090;;;13.2;58
68628;BME280;55611;48.602;9.490;2023-03-14T04:32:52;95100;;;13.1;58
68628;BME280;55611;48.602;9.490;2023-03-14T04:35:22;95090;;;13.1;58
68628;BME280;55611;48.602;9.490;2023-03-14T04:37:53;95080;;;13.1;58
68628;BME280;55611;48.602;9.490;2023-03-14T04:40:23;95100;;;13.1;58
68628;BME280;55611;48.602;9.490;2023-03-14T04:42:54;95070;;;13.1;58
68628;BME280;55611;48.602;9.490;2023-03-14T04:45:24;95070;;;13.1;58
68628;BME280;55611;48.602;9.490;2023-03-14T04:47:55;95070;;;13.1;58
68628;BME280;55611;48.602;9.490;2023-03-14T04:50:26;95060;;;13.1;58
68628;BME280;55611;48.602;9.490;2023-03-14T04:52:56;95060;;;13;58
68628;BME280;55611;48.602;9.490;2023-03-14T04:55:26;95060;;;13;58
68628;BME280;55611;48.602;9.490;2023-03-14T04:57:57;95050;;;13;58
68628;BME280;55611;48.602;9.490;2023-03-14T05:02:58;95050;;;13.2;58
68628;BME280;55611;48.602;9.490;2023-03-14T05:05:29;95040;;;13.1;58
68628;BME280;55611;48.602;9.490;2023-03-14T05:10:30;95040;;;13.2;58
68628;BME280;55611;48.602;9.490;2023-03-14T05:13:00;95030;;;13.1;58
68628;BME280;55611;48.602;9.490;2023-03-14T05:15:31;95030;;;13.1;58
68628;BME280;55611;48.602;9.490;2023-03-14T05:18:01;95040;;;13;58
68628;BME280;55611;48.602;9.490;2023-03-14T05:20:32;95030;;;13;58
68628;BME280;55611;48.602;9.490;2023-03-14T05:23:02;95020;;;13.1;58
68628;BME280;55611;48.602;9.490;2023-03-14T05:25:33;95020;;;13;58
68628;BME280;55611;48.602;9.490;2023-03-14T05:30:34;95030;;;12.9;58
68628;BME280;55611;48.602;9.490;2023-03-14T05:38:16;95000;;;13;58.5
68628;BME280;55611;48.602;9.490;2023-03-14T05:43:17;95000;;;13;58
68628;BME280;55611;48.602;9.490;2023-03-14T05:55:52;95000;;;13;58
68628;BME280;55611;48.602;9.490;2023-03-14T05:58:19;95000;;;13.1;58
68628;BME280;55611;48.602;9.490;2023-03-14T06:00:49;94990;;;13;58
68628;BME280;55611;48.602;9.490;2023-03-14T06:05:50;94980;;;13;58
68628;BME280;55611;48.602;9.490;2023-03-14T06:08:20;95000;;;12.9;58
68628;BME280;55611;48.602;9.490;2023-03-14T06:13:20;94990;;;12.8;58
68628;BME280;55611;48.602;9.490;2023-03-14T06:18:21;94990;;;12.8;58
68628;BME280;55611;48.602;9.490;2023-03-14T06:38:23;95000;;;13;58
68628;BME280;55611;48.602;9.490;2023-03-14T06:43:24;95010;;;13.2;58.5
68628;BME280;55611;48.602;9.490;2023-03-14T06:45:54;94990;;;13.2;58.5
68628;BME280;55611;48.602;9.490;2023-03-14T06:48:25;94980;;;13.2;58.5
68628;BME280;55611;48.602;9.490;2023-03-14T06:50:55;95010;;;13.2;59
68628;BME280;55611;48.602;9.490;2023-03-14T06:58:15;95010;;;13.1;59
68628;BME280;55611;48.602;9.490;2023-03-14T07:05:46;95000;;;13.4;59
68628;BME280;55611;48.602;9.490;2023-03-14T07:08:16;95000;;;13.5;59
68628;BME280;55611;48.602;9.490;2023-03-14T07:10:47;95010;;;13.4;59
68628;BME280;55611;48.602;9.490;2023-03-14T07:13:17;94990;;;13.6;58.5
68628;BME280;55611;48.602;9.490;2023-03-14T07:15:48;95000;;;13.6;58.5
68628;BME280;55611;48.602;9.490;2023-03-14T07:18:18;95010;;;13.7;58.5
68628;BME280;55611;48.602;9.490;2023-03-14T07:20:49;95010;;;13.8;58.5
68628;BME280;55611;48.602;9.490;2023-03-14T07:23:20;95000;;;13.9;58.5
68628;BME280;55611;48.602;9.490;2023-03-14T07:25:50;95020;;;13.9;58.5
68628;BME280;55611;48.602;9.490;2023-03-14T07:30:51;95030;;;13.9;58.5
68628;BME280;55611;48.602;9.490;2023-03-14T07:33:22;95030;;;14;58.5
68628;BME280;55611;48.602;9.490;2023-03-14T07:35:52;95040;;;13.9;58.5
68628;BME280;55611;48.602;9.490;2023-03-14T07:38:23;95040;;;13.9;58.5
68628;BME280;55611;48.602;9.490;2023-03-14T07:43:35;95040;;;14;58.5
68628;BME280;55611;48.602;9.490;2023-03-14T07:46:05;95030;;;14.1;58.5
68628;BME280;55611;48.602;9.490;2023-03-14T07:53:47;95050;;;14.4;59
68628;BME280;55611;48.602;9.490;2023-03-14T08:26:25;95020;;;14.9;59
68628;BME280;55611;48.602;9.490;2023-03-14T09:21:33;95030;;;15.7;59
68628;BME280;55611;48.602;9.490;2023-03-14T09:24:03;95030;;;15.8;59
68628;BME280;55611;48.602;9.490;2023-03-14T09:29:04;95030;;;16.1;59
68628;BME280;55611;48.602;9.490;2023-03-14T09:49:24;95070;;;15.4;59
68628;BME280;55611;48.602;9.490;2023-03-14T09:51:38;95090;;;15.5;59
68628;BME280;55611;48.602;9.490;2023-03-14T09:58:58;95100;;;15.2;59
68628;BME280;55611;48.602;9.490;2023-03-14T10:11:29;95090;;;15.3;59
68628;BME280;55611;48.602;9.490;2023-03-14T10:36:33;95080;;;15.9;58.5
68628;BME280;55611;48.602;9.490;2023-03-14T10:39:21;95080;;;16;58.5
68628;BME280;55611;48.602;9.490;2023-03-14T10:44:03;95060;;;16.2;58.5
68628;BME280;55611;48.602;9.490;2023-03-14T10:49:04;95060;;;16;58.5
68628;BME280;55611;48.602;9.490;2023-03-14T10:51:34;95070;;;16.1;58.5
68628;BME280;55611;48.602;9.490;2023-03-14T10:56:35;95060;;;16.1;58.5
68628;BME280;55611;48.602;9.490;2023-03-14T10:59:11;95070;;;16.2;58.5
68628;BME280;55611;48.602;9.490;2023-03-14T11:11:25;95070;;;16.2;58.5
68628;BME280;55611;48.602;9.490;2023-03-14T11:19:00;95090;;;15.7;58.5
68628;BME280;55611;48.602;9.490;2023-03-14T11:21:29;95110;;;15.8;58
68628;BME280;55611;48.602;9.490;2023-03-14T11:24:08;95100;;;15.5;58
68628;BME280;55611;48.602;9.490;2023-03-14T11:26:30;95110;;;15.3;58
68628;BME280;55611;48.602;9.490;2023-03-14T11:36:37;95130;;;14.3;58
68628;BME280;55611;48.602;9.490;2023-03-14T11:38:59;95130;;;14.2;58
68628;BME280;55611;48.602;9.490;2023-03-14T11:41:30;95120;;;14;58
68628;BME280;55611;48.602;9.490;2023-03-14T11:46:33;95130;;;13.8;57.5
68628;BME280;55611;48.602;9.490;2023-03-14T11:56:33;95140;;;13.8;58
68628;BME280;55611;48.602;9.490;2023-03-14T11:59:04;95140;;;13.8;58
68628;BME280;55611;48.602;9.490;2023-03-14T12:01:36;95150;;;13.8;58
68628;BME280;55611;48.602;9.490;2023-03-14T12:04:05;95140;;;13.7;58
68628;BME280;55611;48.602;9.490;2023-03-14T12:06:36;95150;;;13.4;58
68628;BME280;55611;48.602;9.490;2023-03-14T12:09:05;95150;;;13.4;58
68628;BME280;55611;48.602;9.490;2023-03-14T12:11:38;95150;;;13.5;58
68628;BME280;55611;48.602;9.490;2023-03-14T12:16:36;95160;;;13.7;58
68628;BME280;55611;48.602;9.490;2023-03-14T12:29:14;95180;;;13.9;58.5
68628;BME280;55611;48.602;9.490;2023-03-14T12:36:51;95220;;;13.3;58.5
68628;BME280;55611;48.602;9.490;2023-03-14T13:01:53;95300;;;12.7;59
68628;BME280;55611;48.602;9.490;2023-03-14T13:04:12;95310;;;12.7;59
68628;BME280;55611;48.602;9.490;2023-03-14T13:06:44;95310;;;12.8;59
68628;BME280;55611;48.602;9.490;2023-03-14T13:09:45;95330;;;13;59
68628;BME280;55611;48.602;9.490;2023-03-14T13:11:44;95320;;;13.2;59
68628;BME280;55611;48.602;9.490;2023-03-14T13:14:14;95360;;;13.2;59
68628;BME280;55611;48.602;9.490;2023-03-14T13:16:46;95350;;;13;59
68628;BME280;55611;48.602;9.490;2023-03-14T13:19:18;95360;;;12.8;59
68628;BME280;55611;48.602;9.490;2023-03-14T13:21:46;95370;;;12.6;59
68628;BME280;55611;48.602;9.490;2023-03-14T13:24:24;95370;;;12.5;59
68628;BME280;55611;48.602;9.490;2023-03-14T13:26:47;95380;;;12.4;59
68628;BME280;55611;48.602;9.490;2023-03-14T13:29:19;95380;;;12.4;59
68628;BME280;55611;48.602;9.490;2023-03-14T13:31:50;95410;;;12.3;59
68628;BME280;55611;48.602;9.490;2023-03-14T13:34:18;95430;;;12.3;59
68628;BME280;55611;48.602;9.490;2023-03-14T13:36:51;95440;;;12.4;59.5
68628;BME280;55611;48.602;9.490;2023-03-14T13:39:21;95440;;;12.4;59.5
68628;BME280;55611;48.602;9.490;2023-03-14T13:41:51;95460;;;12.4;59.5
68628;BME280;55611;48.602;9.490;2023-03-14T13:44:23;95480;;;12.5;59.5
68628;BME280;55611;48.602;9.490;2023-03-14T13:46:51;95480;;;12.3;59.5
68628;BME280;55611;48.602;9.490;2023-03-14T13:49:22;95480;;;12.2;59.5
68628;BME280;55611;48.602;9.490;2023-03-14T13:51:52;95490;;;12.2;59.5
68628;BME280;55611;48.602;9.490;2023-03-14T13:54:23;95500;;;12.2;59.5
68628;BME280;55611;48.602;9.490;2023-03-14T13:57:08;95500;;;12.1;59.5
68628;BME280;55611;48.602;9.490;2023-03-14T13:59:24;95530;;;11.9;59.5
68628;BME280;55611;48.602;9.490;2023-03-14T14:01:54;95530;;;11.8;59.5
68628;BME280;55611;48.602;9.490;2023-03-14T14:04:25;95540;;;11.7;59.5
68628;BME280;55611;48.602;9.490;2023-03-14T14:06:56;95550;;;11.6;59.5
68628;BME280;55611;48.602;9.490;2023-03-14T14:09:27;95550;;;11.6;59
68628;BME280;55611;48.602;9.490;2023-03-14T14:11:58;95560;;;11.5;59
68628;BME280;55611;48.602;9.490;2023-03-14T14:14:28;95550;;;11.6;59
68628;BME280;55611;48.602;9.490;2023-03-14T14:16:57;95590;;;11.7;59
68628;BME280;55611;48.602;9.490;2023-03-14T14:19:28;95580;;;11.6;59
68628;BME280;55611;48.602;9.490;2023-03-14T14:21:58;95580;;;11.5;59.5
68628;BME280;55611;48.602;9.490;2023-03-14T14:24:30;95590;;;11.7;59
68628;BME280;55611;48.602;9.490;2023-03-14T14:27:00;95600;;;11.7;59
68628;BME280;55611;48.602;9.490;2023-03-14T14:29:31;95610;;;11.8;59
68628;BME280;55611;48.602;9.490;2023-03-14T14:32:03;95610;;;11.7;59
68628;BME280;55611;48.602;9.490;2023-03-14T14:34:37;95620;;;11.7;59
68628;BME280;55611;48.602;9.490;2023-03-14T14:37:01;95620;;;11.6;59.5
68628;BME280;55611;48.602;9.490;2023-03-14T15:19:40;95720;;;11.2;59
68628;BME280;55611;48.602;9.490;2023-03-14T15:22:11;95700;;;11.3;59
68628;BME280;55611;48.602;9.490;2023-03-14T15:24:41;95720;;;11.3;59
68628;BME280;55611;48.602;9.490;2023-03-14T15:27:13;95710;;;11.4;59
68628;BME280;55611;48.602;9.490;2023-03-14T15:29:42;95720;;;11.3;59.5
68628;BME280;55611;48.602;9.490;2023-03-14T15:32:14;95730;;;11.5;59.5
68628;BME280;55611;48.602;9.490;2023-03-14T15:34:43;95740;;;11.5;59
68628;BME280;55611;48.602;9.490;2023-03-14T15:37:15;95740;;;11.5;59
68628;BME280;55611;48.602;9.490;2023-03-14T15:39:44;95740;;;11.6;59
68628;BME280;55611;48.602;9.490;2023-03-14T15:42:15;95730;;;11.7;59
68628;BME280;55611;48.602;9.490;2023-03-14T15:44:45;95730;;;11.6;59
68628;BME280;55611;48.602;9.490;2023-03-14T15:47:16;95740;;;11.6;59
68628;BME280;55611;48.602;9.490;2023-03-14T15:49:46;95740;;;11.7;59
68628;BME280;55611;48.602;9.490;2023-03-14T15:52:17;95750;;;11.6;59
68628;BME280;55611;48.602;9.490;2023-03-14T15:54:47;95750;;;11.5;59
68628;BME280;55611;48.602;9.490;2023-03-14T15:57:18;95760;;;11.5;59
68628;BME280;55611;48.602;9.490;2023-03-14T15:59:48;95750;;;11.5;59
68628;BME280;55611;48.602;9.490;2023-03-14T16:02:19;95770;;;11.4;58.5
68628;BME280;55611;48.602;9.490;2023-03-14T16:04:49;95760;;;11.2;58.5
68628;BME280;55611;48.602;9.490;2023-03-14T16:07:20;95770;;;11.1;58.5
68628;BME280;55611;48.602;9.490;2023-03-14T16:09:50;95770;;;11.1;58.5
68628;BME280;55611;48.602;9.490;2023-03-14T16:12:21;95770;;;11.1;58.5
68628;BME280;55611;48.602;9.490;2023-03-14T16:14:51;95780;;;11.2;58.5
68628;BME280;55611;48.602;9.490;2023-03-14T16:17:22;95790;;;11.2;58.5
68628;BME280;55611;48.602;9.490;2023-03-14T16:19:52;95780;;;11.1;58.5
68628;BME280;55611;48.602;9.490;2023-03-14T16:22:23;95800;;;11.1;58.5
68628;BME280;55611;48.602;9.490;2023-03-14T16:24:53;95800;;;11.2;58.5
68628;BME280;55611;48.602;9.490;2023-03-14T16:27:24;95810;;;11.1;58.5
68628;BME280;55611;48.602;9.490;2023-03-14T16:29:54;95800;;;11.2;58.5
68628;BME280;55611;48.602;9.490;2023-03-14T16:32:25;95800;;;11.1;58.5
68628;BME280;55611;48.602;9.490;2023-03-14T16:34:56;95800;;;11;58.5
68628;BME280;55611;48.602;9.490;2023-03-14T16:37:26;95800;;;10.9;58.5
68628;BME280;55611;48.602;9.490;2023-03-14T16:39:56;95820;;;10.9;58.5
68628;BME280;55611;48.602;9.490;2023-03-14T16:42:27;95810;;;11;58.5
68628;BME280;55611;48.602;9.490;2023-03-14T16:47:28;95820;;;10.9;58.5
68628;BME280;55611;48.602;9.490;2023-03-14T16:49:59;95820;;;10.8;58.5
68628;BME280;55611;48.602;9.490;2023-03-14T16:52:29;95820;;;10.8;58.5
68628;BME280;55611;48.602;9.490;2023-03-14T16:55:00;95830;;;10.8;58.5
68628;BME280;55611;48.602;9.490;2023-03-14T16:57:30;95830;;;10.9;58.5
68628;BME280;55611;48.602;9.490;2023-03-14T17:00:01;95830;;;10.9;58.5
68628;BME280;55611;48.602;9.490;2023-03-14T17:02:31;95830;;;10.8;58.5
68628;BME280;55611;48.602;9.490;2023-03-14T17:05:02;95840;;;10.8;58.5
68628;BME280;55611;48.602;9.490;2023-03-14T17:07:32;95830;;;10.8;58.5
68628;BME280;55611;48.602;9.490;2023-03-14T17:10:03;95830;;;10.8;58.5
68628;BME280;55611;48.602;9.490;2023-03-14T17:12:33;95850;;;10.7;58.5
68628;BME280;55611;48.602;9.490;2023-03-14T17:15:04;95830;;;10.7;58.5
68628;BME280;55611;48.602;9.490;2023-03-14T17:17:34;95840;;;10.7;58.5
68628;BME280;55611;48.602;9.490;2023-03-14T17:20:05;95830;;;10.7;58.5
68628;BME280;55611;48.602;9.490;2023-03-14T17:22:35;95840;;;10.7;58.5
68628;BME280;55611;48.602;9.490;2023-03-14T17:25:06;95850;;;10.7;58.5
68628;BME280;55611;48.602;9.490;2023-03-14T17:27:36;95870;;;10.6;58.5
68628;BME280;55611;48.602;9.490;2023-03-14T17:30:08;95860;;;10.6;58.5
68628;BME280;55611;48.602;9.490;2023-03-14T17:32:37;95870;;;10.5;58.5
68628;BME280;55611;48.602;9.490;2023-03-14T17:35:08;95870;;;10.5;58.5
68628;BME280;55611;48.602;9.490;2023-03-14T17:37:38;95890;;;10.5;58.5
68628;BME280;55611;48.602;9.490;2023-03-14T17:40:09;95900;;;10.6;58.5
68628;BME280;55611;48.602;9.490;2023-03-14T17:42:39;95900;;;10.5;58.5
68628;BME280;55611;48.602;9.490;2023-03-14T17:45:10;95930;;;10.4;58.5
68628;BME280;55611;48.602;9.490;2023-03-14T17:47:40;95940;;;10.3;58.5
68628;BME280;55611;48.602;9.490;2023-03-14T17:50:11;95920;;;10.2;58.5
68628;BME280;55611;48.602;9.490;2023-03-14T17:52:41;95950;;;10.1;58.5
68628;BME280;55611;48.602;9.490;2023-03-14T17:55:12;95960;;;10;58.5
68628;BME280;55611;48.602;9.490;2023-03-14T17:57:42;95960;;;9.9;58.5
68628;BME280;55611;48.602;9.490;2023-03-14T18:00:13;95950;;;9.6;58.5
68628;BME280;55611;48.602;9.490;2023-03-14T18:02:43;95960;;;9.4;58.5
68628;BME280;55611;48.602;9.490;2023-03-14T18:05:14;95960;;;9.4;58.5
68628;BME280;55611;48.602;9.490;2023-03-14T18:07:45;95970;;;9.4;58.5
68628;BME280;55611;48.602;9.490;2023-03-14T18:10:15;95970;;;9.3;58.5
68628;BME280;55611;48.602;9.490;2023-03-14T18:12:46;95960;;;9.3;58.5
68628;BME280;55611;48.602;9.490;2023-03-14T18:17:47;95990;;;9.3;58.5
68628;BME280;55611;48.602;9.490;2023-03-14T18:20:17;95980;;;9.3;58.5
68628;BME280;55611;48.602;9.490;2023-03-14T18:22:48;95990;;;9.4;58
68628;BME280;55611;48.602;9.490;2023-03-14T18:25:18;95980;;;9.6;58
68628;BME280;55611;48.602;9.490;2023-03-14T18:27:49;96000;;;9.6;58
68628;BME280;55611;48.602;9.490;2023-03-14T18:30:19;95990;;;9.7;58
68628;BME280;55611;48.602;9.490;2023-03-14T18:32:50;96000;;;9.7;58
68628;BME280;55611;48.602;9.490;2023-03-14T18:35:20;96010;;;9.6;58
68628;BME280;55611;48.602;9.490;2023-03-14T18:37:51;96010;;;9.7;58.5
68628;BME280;55611;48.602;9.490;2023-03-14T18:40:21;96020;;;9.7;58.5
68628;BME280;55611;48.602;9.490;2023-03-14T18:42:53;96030;;;9.7;58.5
68628;BME280;55611;48.602;9.490;2023-03-14T18:45:22;96050;;;9.5;58.5
68628;BME280;55611;48.602;9.490;2023-03-14T18:47:53;96060;;;9.3;58.5
68628;BME280;55611;48.602;9.490;2023-03-14T18:50:23;96060;;;9.2;58.5
68628;BME280;55611;48.602;9.490;2023-03-14T18:52:54;96070;;;9.1;58.5
68628;BME280;55611;48.602;9.490;2023-03-14T18:55:24;96080;;;9;58.5
68628;BME280;55611;48.602;9.490;2023-03-14T18:57:55;96070;;;8.9;58.5
68628;BME280;55611;48.602;9.490;2023-03-14T19:00:25;96060;;;9;58.5
68628;BME280;55611;48.602;9.490;2023-03-14T19:02:56;96060;;;9;58
68628;BME280;55611;48.602;9.490;2023-03-14T19:05:26;96060;;;8.8;58
68628;BME280;55611;48.602;9.490;2023-03-14T19:07:57;96060;;;8.8;58
68628;BME280;55611;48.602;9.490;2023-03-14T19:10:28;96060;;;8.7;58
68628;BME280;55611;48.602;9.490;2023-03-14T19:12:58;96060;;;8.7;58
68628;BME280;55611;48.602;9.490;2023-03-14T19:15:28;96060;;;8.6;58
68628;BME280;55611;48.602;9.490;2023-03-14T19:17:59;96070;;;8.5;58
68628;BME280;55611;48.602;9.490;2023-03-14T19:20:30;96060;;;8.6;58
68628;BME280;55611;48.602;9.490;2023-03-14T19:23:00;96080;;;8.6;58
68628;BME280;55611;48.602;9.490;2023-03-14T19:28:01;96080;;;8.7;58
68628;BME280;55611;48.602;9.490;2023-03-14T19:30:32;96080;;;8.7;58
68628;BME280;55611;48.602;9.490;2023-03-14T19:33:02;96080;;;8.5;58
68628;BME280;55611;48.602;9.490;2023-03-14T19:35:33;96080;;;8.6;58
68628;BME280;55611;48.602;9.490;2023-03-14T19:38:03;96080;;;8.7;58
68628;BME280;55611;48.602;9.490;2023-03-14T19:40:34;96070;;;8.7;58
68628;BME280;55611;48.602;9.490;2023-03-14T19:43:04;96090;;;8.8;58
68628;BME280;55611;48.602;9.490;2023-03-14T19:45:35;96080;;;8.7;58
68628;BME280;55611;48.602;9.490;2023-03-14T19:48:05;96100;;;8.7;58
68628;BME280;55611;48.602;9.490;2023-03-14T19:50:36;96100;;;8.7;58
68628;BME280;55611;48.602;9.490;2023-03-14T19:53:06;96110;;;8.8;58.5
68628;BME280;55611;48.602;9.490;2023-03-14T19:55:37;96110;;;8.8;58.5
68628;BME280;55611;48.602;9.490;2023-03-14T19:58:07;96100;;;8.9;58.5
68628;BME280;55611;48.602;9.490;2023-03-14T20:00:38;96110;;;8.9;58.5
68628;BME280;55611;48.602;9.490;2023-03-14T20:03:08;96130;;;9;58.5
68628;BME280;55611;48.602;9.490;2023-03-14T20:05:39;96130;;;9;58.5
68628;BME280;55611;48.602;9.490;2023-03-14T20:08:10;96130;;;9;58.5
68628;BME280;55611;48.602;9.490;2023-03-14T20:10:40;96130;;;9.1;58.5
68628;BME280;55611;48.602;9.490;2023-03-14T20:13:10;96120;;;9;58.5
68628;BME280;55611;48.602;9.490;2023-03-14T20:15:41;96140;;;9;58.5
68628;BME280;55611;48.602;9.490;2023-03-14T20:18:11;96130;;;9;58.5
68628;BME280;55611;48.602;9.490;2023-03-14T20:20:42;96130;;;9;58.5
68628;BME280;55611;48.602;9.490;2023-03-14T20:23:12;96140;;;9;58.5
68628;BME280;55611;48.602;9.490;2023-03-14T20:25:43;96140;;;9;58.5